createdAt,value
2019-03-01T00:00:34.791Z,18.93
2019-03-01T00:03:04.352Z,17.43
2019-03-01T00:06:15.066Z,17.10
2019-03-01T00:09:31.737Z,15.43
2019-03-01T00:12:40.052Z,17.50
2019-03-01T00:15:48.134Z,15.50
2019-03-01T00:18:51.536Z,14.97
2019-03-01T00:22:23.064Z,15.90
2019-03-01T00:25:32.210Z,20.90
2019-03-01T00:28:30.334Z,13.07
2019-03-01T00:31:43.364Z,13.00
2019-03-01T00:34:50.845Z,12.77
2019-03-01T00:38:16.408Z,13.67
2019-03-01T00:41:06.116Z,12.73
2019-03-01T00:44:22.333Z,12.57
2019-03-01T00:46:51.848Z,14.17
2019-03-01T00:49:21.340Z,11.83
2019-03-01T00:51:50.976Z,16.33
2019-03-01T00:54:20.420Z,16.30
2019-03-01T00:56:49.832Z,16.57
2019-03-01T00:59:19.289Z,14.00
2019-03-01T01:01:48.708Z,14.17
2019-03-01T01:04:18.090Z,14.90
2019-03-01T01:06:47.530Z,12.80
2019-03-01T01:09:17.053Z,15.10
2019-03-01T01:11:46.488Z,14.73
2019-03-01T01:14:15.937Z,13.63
2019-03-01T01:16:45.327Z,15.57
2019-03-01T01:19:14.839Z,15.70
2019-03-01T01:21:44.343Z,11.83
2019-03-01T01:24:13.827Z,14.33
2019-03-01T01:26:43.230Z,17.80
2019-03-01T01:29:12.613Z,17.77
2019-03-01T01:31:42.103Z,15.30
2019-03-01T01:34:11.540Z,13.97
2019-03-01T01:36:40.999Z,14.40
2019-03-01T01:39:10.971Z,13.97
2019-03-01T01:41:40.353Z,18.20
2019-03-01T01:44:09.784Z,15.47
2019-03-01T01:46:39.246Z,14.60
2019-03-01T01:49:08.769Z,13.27
2019-03-01T01:51:38.176Z,16.13
2019-03-01T01:54:07.616Z,15.37
2019-03-01T01:56:37.029Z,18.07
2019-03-01T01:59:06.472Z,13.77
2019-03-01T02:01:35.892Z,15.07
2019-03-01T02:04:05.822Z,15.00
2019-03-01T02:06:35.354Z,13.70
2019-03-01T02:09:14.058Z,15.60
2019-03-01T02:11:43.444Z,17.20
2019-03-01T02:14:12.855Z,12.10
2019-03-01T02:16:42.214Z,12.60
2019-03-01T02:19:11.633Z,15.57
2019-03-01T02:21:41.023Z,15.13
2019-03-01T02:24:10.379Z,13.53
2019-03-01T02:26:39.808Z,9.87
2019-03-01T02:29:09.241Z,10.07
2019-03-01T02:31:40.445Z,11.77
2019-03-01T02:34:09.866Z,9.87
2019-03-01T02:36:39.302Z,13.40
2019-03-01T02:39:09.036Z,11.57
2019-03-01T02:41:38.425Z,10.90
2019-03-01T02:44:07.883Z,11.37
2019-03-01T02:46:37.242Z,12.37
2019-03-01T02:49:06.771Z,8.90
2019-03-01T02:51:36.136Z,12.47
2019-03-01T02:54:05.678Z,12.90
2019-03-01T02:56:35.975Z,13.73
2019-03-01T02:59:05.391Z,13.37
2019-03-01T03:01:34.737Z,13.73
2019-03-01T03:04:04.169Z,10.57
2019-03-01T03:07:01.605Z,12.47
2019-03-01T03:09:30.971Z,8.40
2019-03-01T03:12:00.372Z,13.73
2019-03-01T03:14:29.789Z,8.93
2019-03-01T03:16:59.245Z,10.07
2019-03-01T03:19:28.636Z,10.13
2019-03-01T03:21:58.059Z,9.00
2019-03-01T03:24:27.478Z,10.30
2019-03-01T03:26:56.889Z,9.30
2019-03-01T03:29:26.314Z,10.57
2019-03-01T03:31:55.715Z,11.73
2019-03-01T03:34:25.251Z,9.23
2019-03-01T03:36:54.647Z,10.27
2019-03-01T03:39:24.029Z,7.33
2019-03-01T03:41:53.439Z,9.40
2019-03-01T03:44:22.790Z,10.93
2019-03-01T03:46:52.214Z,9.40
2019-03-01T03:49:21.609Z,11.50
2019-03-01T03:51:50.998Z,10.07
2019-03-01T03:54:20.375Z,12.10
2019-03-01T03:56:49.851Z,13.07
2019-03-01T03:59:19.336Z,10.30
2019-03-01T04:01:48.755Z,10.47
2019-03-01T04:04:18.277Z,10.37
2019-03-01T04:06:47.653Z,9.50
2019-03-01T04:09:17.269Z,13.27
2019-03-01T04:11:46.738Z,11.00
2019-03-01T04:14:16.126Z,10.00
2019-03-01T04:16:45.551Z,11.80
2019-03-01T04:19:14.952Z,10.07
2019-03-01T04:21:44.318Z,9.37
2019-03-01T04:24:13.779Z,8.63
2019-03-01T04:26:43.194Z,12.17
2019-03-01T04:29:12.643Z,12.97
2019-03-01T04:31:42.033Z,11.63
2019-03-01T04:34:11.506Z,12.00
2019-03-01T04:36:41.943Z,12.30
2019-03-01T04:39:11.356Z,14.60
2019-03-01T04:41:40.768Z,11.73
2019-03-01T04:44:10.228Z,12.63
2019-03-01T04:46:39.649Z,12.33
2019-03-01T04:49:09.068Z,11.97
2019-03-01T04:51:40.336Z,12.07
2019-03-01T04:54:09.587Z,17.33
2019-03-01T04:56:39.028Z,10.27
2019-03-01T04:59:08.472Z,12.43
2019-03-01T05:01:37.859Z,11.93
2019-03-01T05:04:07.300Z,11.50
2019-03-01T05:06:36.690Z,13.60
2019-03-01T05:09:07.772Z,12.50
2019-03-01T05:11:37.263Z,13.83
2019-03-01T05:14:06.747Z,13.07
2019-03-01T05:16:36.184Z,12.50
2019-03-01T05:19:05.622Z,10.73
2019-03-01T05:21:35.022Z,12.50
2019-03-01T05:24:04.577Z,11.63
2019-03-01T05:26:34.102Z,17.13
2019-03-01T05:29:03.517Z,15.20
2019-03-01T05:31:32.903Z,13.57
2019-03-01T05:34:02.352Z,14.23
2019-03-01T05:36:31.814Z,13.13
2019-03-01T05:39:01.576Z,16.73
2019-03-01T05:41:31.015Z,13.20
2019-03-01T05:44:00.573Z,18.47
2019-03-01T05:46:30.018Z,15.17
2019-03-01T05:48:59.455Z,13.50
2019-03-01T05:51:28.844Z,15.93
2019-03-01T05:53:58.272Z,15.87
2019-03-01T05:56:27.672Z,15.00
2019-03-01T05:59:10.854Z,16.33
2019-03-01T06:02:27.575Z,14.77
2019-03-01T06:05:00.449Z,15.83
2019-03-01T06:08:16.651Z,14.33
2019-03-01T06:10:52.342Z,19.17
2019-03-01T06:13:55.659Z,13.63
2019-03-01T06:16:56.923Z,14.67
2019-03-01T06:20:07.208Z,17.00
2019-03-01T06:23:23.932Z,14.37
2019-03-01T06:26:33.112Z,17.83
2019-03-01T06:29:32.273Z,14.43
2019-03-01T06:32:35.010Z,13.13
2019-03-01T06:35:38.350Z,13.83
2019-03-01T06:39:03.076Z,14.57
2019-03-01T06:41:59.851Z,15.93
2019-03-01T06:45:07.506Z,14.30
2019-03-01T06:47:48.567Z,17.40
2019-03-01T06:50:44.517Z,14.73
2019-03-01T06:53:13.919Z,17.30
2019-03-01T06:56:00.654Z,16.43
2019-03-01T06:58:35.552Z,16.33
2019-03-01T07:01:14.366Z,14.60
2019-03-01T07:03:45.578Z,18.20
2019-03-01T07:06:15.052Z,14.83
2019-03-01T07:08:44.541Z,16.17
2019-03-01T07:11:14.043Z,18.53
2019-03-01T07:13:43.465Z,14.07
2019-03-01T07:16:12.856Z,18.17
2019-03-01T07:18:42.278Z,17.50
2019-03-01T07:21:11.728Z,22.60
2019-03-01T07:23:41.206Z,18.57
2019-03-01T07:26:10.728Z,15.47
2019-03-01T07:28:40.159Z,15.47
2019-03-01T07:31:09.627Z,16.30
2019-03-01T07:33:39.046Z,17.07
2019-03-01T07:36:08.471Z,20.53
2019-03-01T07:38:37.923Z,16.30
2019-03-01T07:41:07.359Z,16.27
2019-03-01T07:43:36.759Z,14.47
2019-03-01T07:46:06.361Z,18.37
2019-03-01T07:48:35.748Z,16.30
2019-03-01T07:51:05.175Z,18.63
2019-03-01T07:53:36.089Z,16.43
2019-03-01T07:56:05.783Z,17.60
2019-03-01T07:58:35.278Z,19.17
2019-03-01T08:01:05.196Z,19.97
2019-03-01T08:03:34.660Z,19.00
2019-03-01T08:06:04.196Z,16.67
2019-03-01T08:08:34.931Z,17.83
2019-03-01T08:11:04.989Z,15.70
2019-03-01T08:13:34.450Z,18.60
2019-03-01T08:16:03.947Z,20.27
2019-03-01T08:18:33.361Z,16.77
2019-03-01T08:21:06.079Z,15.67
2019-03-01T08:23:35.139Z,15.23
2019-03-01T08:26:05.401Z,16.13
2019-03-01T08:28:34.852Z,14.47
2019-03-01T08:31:04.638Z,18.73
2019-03-01T08:33:34.183Z,16.33
2019-03-01T08:36:05.814Z,18.17
2019-03-01T08:38:34.929Z,18.07
2019-03-01T08:41:04.385Z,16.53
2019-03-01T08:43:35.712Z,19.27
2019-03-01T08:46:05.546Z,15.80
2019-03-01T08:48:36.165Z,16.07
2019-03-01T08:51:05.663Z,13.93
2019-03-01T08:53:35.218Z,18.83
2019-03-01T08:56:04.677Z,18.67
2019-03-01T08:58:34.183Z,17.07
2019-03-01T09:01:08.382Z,16.27
2019-03-01T09:03:43.217Z,16.67
2019-03-01T09:06:12.701Z,20.97
2019-03-01T09:08:42.921Z,16.80
2019-03-01T09:11:13.637Z,17.90
2019-03-01T09:13:43.161Z,18.37
2019-03-01T09:16:12.638Z,15.27
2019-03-01T09:18:42.390Z,19.17
2019-03-01T09:21:12.925Z,16.63
2019-03-01T09:23:43.158Z,16.30
2019-03-01T09:26:12.672Z,17.77
2019-03-01T09:28:42.120Z,19.57
2019-03-01T09:31:11.730Z,20.03
2019-03-01T09:33:41.215Z,15.77
2019-03-01T09:36:18.051Z,21.17
2019-03-01T09:38:45.989Z,16.70
2019-03-01T09:41:15.512Z,16.17
2019-03-01T09:43:44.958Z,17.00
2019-03-01T09:46:14.433Z,16.20
2019-03-01T09:48:45.593Z,13.97
2019-03-01T09:51:15.959Z,15.40
2019-03-01T09:53:45.559Z,19.20
2019-03-01T09:56:14.972Z,15.90
2019-03-01T09:58:44.458Z,16.07
2019-03-01T10:01:16.194Z,16.30
2019-03-01T10:03:46.147Z,17.30
2019-03-01T10:06:15.632Z,17.53
2019-03-01T10:08:45.198Z,16.57
2019-03-01T10:11:14.725Z,16.17
2019-03-01T10:13:44.214Z,18.03
2019-03-01T10:16:13.795Z,16.67
2019-03-01T10:18:43.205Z,18.13
2019-03-01T10:21:12.573Z,17.80
2019-03-01T10:23:41.987Z,16.00
2019-03-01T10:26:11.397Z,20.17
2019-03-01T10:28:40.805Z,16.27
2019-03-01T10:31:10.245Z,21.53
2019-03-01T10:33:39.722Z,16.83
2019-03-01T10:36:09.290Z,16.67
2019-03-01T10:38:38.662Z,17.57
2019-03-01T10:41:08.097Z,18.97
2019-03-01T10:43:37.519Z,19.17
2019-03-01T10:46:06.903Z,20.63
2019-03-01T10:48:36.326Z,16.13
2019-03-01T10:51:05.701Z,19.87
2019-03-01T10:53:35.085Z,18.60
2019-03-01T10:56:04.537Z,17.33
2019-03-01T10:58:33.981Z,17.93
2019-03-01T11:01:04.043Z,19.67
2019-03-01T11:03:33.426Z,17.67
2019-03-01T11:06:02.811Z,19.63
2019-03-01T11:08:32.251Z,17.90
2019-03-01T11:11:01.634Z,18.37
2019-03-01T11:13:31.056Z,17.90
2019-03-01T11:16:00.429Z,20.60
2019-03-01T11:18:29.813Z,21.27
2019-03-01T11:20:59.193Z,19.10
2019-03-01T11:23:28.585Z,17.40
2019-03-01T11:25:57.997Z,18.40
2019-03-01T11:28:27.526Z,18.47
2019-03-01T11:30:56.935Z,17.20
2019-03-01T11:33:26.308Z,20.73
2019-03-01T11:35:55.744Z,19.77
2019-03-01T11:38:25.135Z,20.70
2019-03-01T11:40:55.899Z,17.70
2019-03-01T11:43:25.421Z,17.13
2019-03-01T11:45:54.790Z,19.73
2019-03-01T11:48:24.191Z,18.77
2019-03-01T11:50:53.669Z,14.63
2019-03-01T11:53:23.053Z,18.70
2019-03-01T11:55:52.496Z,18.03
2019-03-01T11:58:21.981Z,18.73
2019-03-01T12:00:52.427Z,22.93
2019-03-01T12:03:21.971Z,19.57
2019-03-01T12:05:51.372Z,17.97
2019-03-01T12:08:20.756Z,16.20
2019-03-01T12:10:50.220Z,16.10
2019-03-01T12:13:19.598Z,15.70
2019-03-01T12:15:48.979Z,16.70
2019-03-01T12:18:18.350Z,18.13
2019-03-01T12:20:47.715Z,18.33
2019-03-01T12:23:17.139Z,17.87
2019-03-01T12:25:46.861Z,19.07
2019-03-01T12:28:16.342Z,16.13
2019-03-01T12:30:45.737Z,16.77
2019-03-01T12:33:15.180Z,16.77
2019-03-01T12:35:44.721Z,15.63
2019-03-01T12:38:14.181Z,18.03
2019-03-01T12:40:43.615Z,17.07
2019-03-01T12:43:13.114Z,16.73
2019-03-01T12:45:42.455Z,14.73
2019-03-01T12:48:12.798Z,14.47
2019-03-01T12:50:42.192Z,18.07
2019-03-01T12:53:11.666Z,16.37
2019-03-01T12:55:41.057Z,17.13
2019-03-01T12:58:19.205Z,17.63
2019-03-01T13:00:41.877Z,17.10
2019-03-01T13:03:11.263Z,16.07
2019-03-01T13:05:40.672Z,18.43
2019-03-01T13:08:12.519Z,18.13
2019-03-01T13:10:41.481Z,14.80
2019-03-01T13:13:10.976Z,17.30
2019-03-01T13:15:40.364Z,19.03
2019-03-01T13:18:15.750Z,17.83
2019-03-01T13:20:41.205Z,15.03
2019-03-01T13:23:10.585Z,16.83
2019-03-01T13:25:39.968Z,16.13
2019-03-01T13:28:09.362Z,17.70
2019-03-01T13:30:38.742Z,16.93
2019-03-01T13:33:08.121Z,13.53
2019-03-01T13:35:37.552Z,14.40
2019-03-01T13:38:06.930Z,12.27
2019-03-01T13:40:36.329Z,13.60
2019-03-01T13:43:05.745Z,14.37
2019-03-01T13:45:38.158Z,14.00
2019-03-01T13:48:07.534Z,16.17
2019-03-01T13:50:38.326Z,13.30
2019-03-01T13:53:08.037Z,12.47
2019-03-01T13:55:37.435Z,13.50
2019-03-01T13:58:06.806Z,11.77
2019-03-01T14:00:36.155Z,14.10
2019-03-01T14:03:05.543Z,14.33
2019-03-01T14:05:34.918Z,15.47
2019-03-01T14:08:09.059Z,13.37
2019-03-01T14:10:38.555Z,14.47
2019-03-01T14:13:07.144Z,15.17
2019-03-01T14:15:38.514Z,18.20
2019-03-01T14:18:07.720Z,14.70
2019-03-01T14:20:37.164Z,10.33
2019-03-01T14:23:06.578Z,12.83
2019-03-01T14:25:38.566Z,13.83
2019-03-01T14:28:07.124Z,13.73
2019-03-01T14:30:36.509Z,14.20
2019-03-01T14:33:05.872Z,12.37
2019-03-01T14:35:35.253Z,11.93
2019-03-01T14:38:04.812Z,14.83
2019-03-01T14:40:34.183Z,12.70
2019-03-01T14:43:03.835Z,12.97
2019-03-01T14:45:33.191Z,10.07
2019-03-01T14:48:05.046Z,11.27
2019-03-01T14:50:34.775Z,13.80
2019-03-01T14:53:04.245Z,13.03
2019-03-01T14:55:38.530Z,15.70
2019-03-01T14:58:15.168Z,13.43
2019-03-01T15:01:29.727Z,14.00
2019-03-01T15:03:59.096Z,15.93
2019-03-01T15:06:28.487Z,14.23
2019-03-01T15:08:57.887Z,13.13
2019-03-01T15:11:27.258Z,17.23
2019-03-01T15:13:57.157Z,16.57
2019-03-01T15:16:26.586Z,17.97
2019-03-01T15:18:55.984Z,20.27
2019-03-01T15:21:25.367Z,17.43
2019-03-01T15:23:56.269Z,15.83
2019-03-01T15:26:26.592Z,15.27
2019-03-01T15:28:58.901Z,18.57
2019-03-01T15:31:28.488Z,16.00
2019-03-01T15:33:57.864Z,18.33
2019-03-01T15:36:27.214Z,14.67
2019-03-01T15:38:56.572Z,16.20
2019-03-01T15:41:26.751Z,19.73
2019-03-01T15:43:56.133Z,17.77
2019-03-01T15:46:25.481Z,17.13
2019-03-01T15:48:54.847Z,16.60
2019-03-01T15:51:24.208Z,19.50
2019-03-01T15:53:53.605Z,18.97
2019-03-01T15:56:23.015Z,18.67
2019-03-01T15:58:52.418Z,18.43
2019-03-01T16:01:21.818Z,18.57
2019-03-01T16:03:54.096Z,18.80
2019-03-01T16:06:22.441Z,17.83
2019-03-01T16:08:51.769Z,19.20
2019-03-01T16:11:21.155Z,21.20
2019-03-01T16:13:50.631Z,19.93
2019-03-01T16:16:20.052Z,19.93
2019-03-01T16:18:49.502Z,21.40
2019-03-01T16:21:18.931Z,20.63
2019-03-01T16:23:48.370Z,24.20
2019-03-01T16:26:17.779Z,21.17
2019-03-01T16:28:47.365Z,20.50
2019-03-01T16:31:16.776Z,25.37
2019-03-01T16:33:46.130Z,25.23
2019-03-01T16:36:26.473Z,20.67
2019-03-01T16:38:56.366Z,24.13
2019-03-01T16:41:25.702Z,24.77
2019-03-01T16:43:55.109Z,24.90
2019-03-01T16:46:24.495Z,23.20
2019-03-01T16:48:53.884Z,31.93
2019-03-01T16:51:23.238Z,29.30
2019-03-01T16:53:52.632Z,32.63
2019-03-01T16:56:22.065Z,25.50
2019-03-01T16:58:51.496Z,28.00
2019-03-01T17:01:20.880Z,22.53
2019-03-01T17:03:52.732Z,27.47
2019-03-01T17:06:21.417Z,23.33
2019-03-01T17:08:50.815Z,22.13
2019-03-01T17:11:20.181Z,22.40
2019-03-01T17:13:49.589Z,19.43
2019-03-01T17:16:20.481Z,19.47
2019-03-01T17:18:50.101Z,21.63
2019-03-01T17:21:19.518Z,19.27
2019-03-01T17:23:48.898Z,22.90
2019-03-01T17:26:18.494Z,19.30
2019-03-01T17:28:49.813Z,22.43
2019-03-01T17:31:19.469Z,21.83
2019-03-01T17:33:50.029Z,22.13
2019-03-01T17:36:19.533Z,20.47
2019-03-01T17:38:48.911Z,20.33
2019-03-01T17:41:18.266Z,23.37
2019-03-01T17:43:47.679Z,28.77
2019-03-01T17:46:17.106Z,25.77
2019-03-01T17:48:46.530Z,28.43
2019-03-01T17:51:18.260Z,27.93
2019-03-01T17:53:47.258Z,27.00
2019-03-01T17:56:18.584Z,33.83
2019-03-01T17:58:48.001Z,39.27
2019-03-01T18:01:17.384Z,39.23
2019-03-01T18:03:46.758Z,40.10
2019-03-01T18:06:16.798Z,41.13
2019-03-01T18:08:47.377Z,49.90
2019-03-01T18:11:16.738Z,48.70
2019-03-01T18:13:46.138Z,46.70
2019-03-01T18:16:15.608Z,37.47
2019-03-01T18:18:48.757Z,36.77
2019-03-01T18:21:16.074Z,37.07
2019-03-01T18:23:45.458Z,44.37
2019-03-01T18:26:14.814Z,40.80
2019-03-01T18:28:44.243Z,44.77
2019-03-01T18:31:13.600Z,41.10
2019-03-01T18:33:43.002Z,45.13
2019-03-01T18:36:12.384Z,41.03
2019-03-01T18:38:41.761Z,40.67
2019-03-01T18:41:11.549Z,36.47
2019-03-01T18:43:40.940Z,42.07
2019-03-01T18:46:10.410Z,39.53
2019-03-01T18:48:40.547Z,36.27
2019-03-01T18:51:10.934Z,39.60
2019-03-01T18:53:40.335Z,34.50
2019-03-01T18:56:09.831Z,41.80
2019-03-01T18:58:39.199Z,35.50
2019-03-01T19:01:11.695Z,37.43
2019-03-01T19:03:41.524Z,39.77
2019-03-01T19:06:12.825Z,45.57
2019-03-01T19:08:42.041Z,46.07
2019-03-01T19:11:11.469Z,47.20
2019-03-01T19:13:40.835Z,36.77
2019-03-01T19:16:10.576Z,42.23
2019-03-01T19:18:42.138Z,45.47
2019-03-01T19:21:13.888Z,37.67
2019-03-01T19:23:42.153Z,33.23
2019-03-01T19:26:11.525Z,29.07
2019-03-01T19:28:40.944Z,32.77
2019-03-01T19:31:10.301Z,29.17
2019-03-01T19:33:41.635Z,31.93
2019-03-01T19:36:10.868Z,27.93
2019-03-01T19:38:40.245Z,28.63
2019-03-01T19:41:09.727Z,28.90
2019-03-01T19:43:41.666Z,31.50
2019-03-01T19:46:12.582Z,27.10
2019-03-01T19:48:41.389Z,29.50
2019-03-01T19:51:10.747Z,30.50
2019-03-01T19:53:40.116Z,31.57
2019-03-01T19:56:09.489Z,30.47
2019-03-01T19:58:38.954Z,27.87
2019-03-01T20:01:08.354Z,27.63
2019-03-01T20:03:37.687Z,27.00
2019-03-01T20:06:07.869Z,26.53
2019-03-01T20:08:38.258Z,27.47
2019-03-01T20:11:07.605Z,27.43
2019-03-01T20:13:36.967Z,27.27
2019-03-01T20:16:06.394Z,25.33
2019-03-01T20:18:35.766Z,25.93
2019-03-01T20:21:05.869Z,24.17
2019-03-01T20:23:36.320Z,23.27
2019-03-01T20:26:05.693Z,22.23
2019-03-01T20:28:35.070Z,25.90
2019-03-01T20:31:04.930Z,22.83
2019-03-01T20:33:35.251Z,22.97
2019-03-01T20:36:05.193Z,25.17
2019-03-01T20:38:37.017Z,24.27
2019-03-01T20:41:05.683Z,21.40
2019-03-01T20:46:03.949Z,25.27
2019-03-01T20:48:33.578Z,25.97
2019-03-01T20:51:02.968Z,27.27
2019-03-01T20:53:32.421Z,24.37
2019-03-01T20:56:01.820Z,23.27
2019-03-01T20:58:31.279Z,23.77
2019-03-01T21:01:02.012Z,22.67
2019-03-01T21:03:31.695Z,22.07
2019-03-01T21:06:01.766Z,30.17
2019-03-01T21:08:32.161Z,27.50
2019-03-01T21:11:01.660Z,28.50
2019-03-01T21:13:31.013Z,31.73
2019-03-01T21:16:00.405Z,33.17
2019-03-01T21:18:30.824Z,34.73
2019-03-01T21:21:00.864Z,36.60
2019-03-01T21:23:30.277Z,36.30
2019-03-01T21:25:59.663Z,40.90
2019-03-01T21:28:29.209Z,44.27
2019-03-01T21:30:59.002Z,42.23
2019-03-01T21:33:29.317Z,37.73
2019-03-01T21:35:58.679Z,43.53
2019-03-01T21:38:28.054Z,39.63
2019-03-01T21:40:57.455Z,47.57
2019-03-01T21:43:26.827Z,47.27
2019-03-01T21:45:58.968Z,45.27
2019-03-01T21:48:27.286Z,40.67
2019-03-01T21:50:56.628Z,40.47
2019-03-01T21:53:26.169Z,40.53
2019-03-01T21:55:55.530Z,51.00
2019-03-01T21:58:24.943Z,42.93
2019-03-01T22:00:54.370Z,45.30
2019-03-01T22:03:24.843Z,40.83
2019-03-01T22:05:54.850Z,32.07
2019-03-01T22:08:24.246Z,34.13
2019-03-01T22:10:53.691Z,33.20
2019-03-01T22:13:23.027Z,32.67
2019-03-01T22:15:52.390Z,35.10
2019-03-01T22:18:23.613Z,28.53
2019-03-01T22:20:52.874Z,25.33
2019-03-01T22:23:22.237Z,24.13
2019-03-01T22:25:51.660Z,30.27
2019-03-01T22:28:21.338Z,24.70
2019-03-01T22:30:50.839Z,32.40
2019-03-01T22:33:20.777Z,31.00
2019-03-01T22:35:51.387Z,29.40
2019-03-01T22:38:20.749Z,29.63
2019-03-01T22:40:50.174Z,30.67
2019-03-01T22:43:22.546Z,31.10
2019-03-01T22:45:50.678Z,33.17
2019-03-01T22:48:20.051Z,34.27
2019-03-01T22:50:49.434Z,31.43
2019-03-01T22:53:18.851Z,30.57
2019-03-01T22:55:48.238Z,29.60
2019-03-01T22:58:17.666Z,29.30
2019-03-01T23:01:17.355Z,28.77
2019-03-01T23:03:54.908Z,28.63
2019-03-01T23:06:22.920Z,29.63
2019-03-01T23:08:52.307Z,27.63
2019-03-01T23:11:21.673Z,27.10
2019-03-01T23:13:52.788Z,26.40
2019-03-01T23:16:22.098Z,24.43
2019-03-01T23:18:56.594Z,23.60
2019-03-01T23:21:22.529Z,24.30
2019-03-01T23:23:51.894Z,23.37
2019-03-01T23:26:21.540Z,25.57
2019-03-01T23:28:51.806Z,32.10
2019-03-01T23:31:21.186Z,26.70
2019-03-01T23:33:50.559Z,28.60
2019-03-01T23:36:20.256Z,42.17
2019-03-01T23:38:50.206Z,32.13
2019-03-01T23:41:20.607Z,30.73
2019-03-01T23:43:49.979Z,31.00
2019-03-01T23:46:19.366Z,30.93
2019-03-01T23:48:48.993Z,48.53
2019-03-01T23:51:19.108Z,49.23
2019-03-01T23:53:48.482Z,30.50
2019-03-01T23:56:17.824Z,42.67
2019-03-01T23:58:47.988Z,33.60
